Terminal Aerodrome Forecast
Issued by NWS

Current Version | Previous Version | Graphics & Text | Print | Product List | Glossary On
Versions: 1 2 3 4 5 6 7 8 9 10 11 12 13 14 15 16 17 18 19 20 21
837
FTUS41 KRLX 032330
TAFCKB
TAF
KCKB 032330Z 0400/0424 24008KT P6SM FEW030
     FM040700 26008KT P6SM BKN035
     FM040800 26007KT P6SM BKN025
     FM041100 26006KT P6SM BKN015
     FM041200 26006KT 6SM HZ OVC015
     FM041500 27007KT P6SM OVC025
     FM042000 27007KT P6SM BKN050=

USA.gov is the U.S. government's official web portal to all federal, state and local government web resources and services.